Time;durP1;ratioP1;P1;durP2;ratioP2;P2;SDS_P1;SDS_P2;PMS_P1;PMS_P2;Temp;Humidity;BMP_temperature;BMP_pressure;BME280_temperature;BME280_humidity;BME280_pressure;Samples;Min_cycle;Max_cycle;Signal;HPM_P1;HPM_P2
2023/09/12 00:01:40;;;;;;;18.08;14.30;;;14.80;99.90;;;;;;5038618;28;20021;-78
2023/09/12 00:04:06;;;;;;;16.58;14.82;;;14.70;99.90;;;;;;5021421;28;20017;-78
2023/09/12 00:06:32;;;;;;;19.35;16.05;;;14.60;99.90;;;;;;5030128;28;20386;-78
2023/09/12 00:08:57;;;;;;;20.90;17.80;;;14.60;99.90;;;;;;5024048;28;20040;-78
2023/09/12 00:11:25;;;;;;;16.63;14.70;;;14.60;99.90;;;;;;5031423;28;20040;-79
2023/09/12 00:13:51;;;;;;;19.58;17.42;;;14.50;99.90;;;;;;5023394;28;20495;-78
2023/09/12 00:16:17;;;;;;;26.08;18.55;;;14.50;99.90;;;;;;5018207;28;20425;-79
2023/09/12 00:18:43;;;;;;;26.92;18.77;;;14.50;99.90;;;;;;5025838;28;20030;-79
2023/09/12 00:21:09;;;;;;;29.10;21.20;;;14.50;99.90;;;;;;5031528;28;20078;-79
2023/09/12 00:23:35;;;;;;;27.85;22.05;;;14.50;99.90;;;;;;5027228;28;20372;-78
2023/09/12 00:26:01;;;;;;;34.38;24.75;;;14.50;99.90;;;;;;5029745;28;20028;-79
2023/09/12 00:28:27;;;;;;;29.27;22.52;;;14.50;99.90;;;;;;5027044;28;20424;-78
2023/09/12 00:30:53;;;;;;;30.42;22.73;;;14.50;99.90;;;;;;5029320;28;20039;-78
2023/09/12 00:33:19;;;;;;;29.63;23.85;;;14.50;99.90;;;;;;5031100;28;20034;-78
2023/09/12 00:35:44;;;;;;;32.13;24.17;;;14.50;99.90;;;;;;5031695;28;20017;-77
2023/09/12 00:38:10;;;;;;;26.58;21.58;;;14.50;99.90;;;;;;5043394;28;20554;-79
2023/09/12 00:40:37;;;;;;;32.30;23.95;;;14.50;99.90;;;;;;5057172;28;20029;-78
2023/09/12 00:43:03;;;;;;;26.52;20.77;;;14.50;99.90;;;;;;5027947;28;20011;-79
2023/09/12 00:45:29;;;;;;;29.40;22.38;;;14.50;99.90;;;;;;5030970;28;20021;-77
2023/09/12 00:47:57;;;;;;;31.58;22.95;;;14.40;99.90;;;;;;5022554;28;20490;-78
2023/09/12 00:50:25;;;;;;;29.95;21.05;;;14.40;99.90;;;;;;5038410;28;20104;-79
2023/09/12 00:52:52;;;;;;;29.58;21.70;;;14.40;99.90;;;;;;5026303;28;20022;-78
2023/09/12 00:55:18;;;;;;;28.27;21.88;;;14.40;99.90;;;;;;5039572;28;20466;-78
2023/09/12 00:57:45;;;;;;;29.77;21.25;;;14.40;99.90;;;;;;5024441;28;20013;-79
2023/09/12 01:00:13;;;;;;;26.95;20.67;;;14.30;99.90;;;;;;5018684;28;20045;-78
2023/09/12 01:02:44;;;;;;;25.65;20.60;;;14.30;99.90;;;;;;5023585;28;20519;-77
2023/09/12 01:05:11;;;;;;;23.65;19.40;;;14.30;99.90;;;;;;5026347;28;20033;-77
2023/09/12 01:07:38;;;;;;;21.40;18.45;;;14.20;99.90;;;;;;5025570;28;20067;-77
2023/09/12 01:10:07;;;;;;;27.30;19.73;;;14.20;99.90;;;;;;5027972;28;20018;-78
2023/09/12 01:12:33;;;;;;;29.73;21.08;;;14.20;99.90;;;;;;5024475;28;20041;-78
2023/09/12 01:14:59;;;;;;;24.15;19.25;;;14.20;99.90;;;;;;5027371;28;20025;-79
2023/09/12 01:17:25;;;;;;;25.35;19.90;;;14.10;99.90;;;;;;5026957;28;20022;-79
2023/09/12 01:19:51;;;;;;;26.95;21.05;;;14.10;99.90;;;;;;5027310;28;20017;-79
2023/09/12 01:22:31;;;;;;;25.10;19.48;;;14.10;99.90;;;;;;5026710;28;20022;-78
2023/09/12 01:25:18;;;;;;;26.70;22.23;;;14.10;99.90;;;;;;5030605;28;20065;-79
2023/09/12 01:27:48;;;;;;;25.90;19.83;;;14.10;99.90;;;;;;5026913;28;20022;-78
2023/09/12 01:30:17;;;;;;;22.70;18.92;;;14.00;99.90;;;;;;5030252;28;20112;-77
2023/09/12 01:32:44;;;;;;;22.77;19.40;;;13.90;99.90;;;;;;5028257;28;20100;-78
2023/09/12 01:35:09;;;;;;;19.95;17.23;;;13.90;99.90;;;;;;5029505;28;20029;-77
2023/09/12 01:37:35;;;;;;;16.70;14.20;;;13.80;99.90;;;;;;5028820;28;20453;-78
2023/09/12 01:40:03;;;;;;;13.05;11.85;;;13.70;99.90;;;;;;5029694;28;20120;-77
2023/09/12 01:42:36;;;;;;;19.77;16.08;;;13.70;99.90;;;;;;5028055;28;20013;-78
2023/09/12 01:45:03;;;;;;;26.73;22.08;;;13.70;99.90;;;;;;5028727;28;20030;-78
2023/09/12 01:47:29;;;;;;;26.60;21.92;;;13.70;99.90;;;;;;5026373;28;20045;-77
2023/09/12 01:49:57;;;;;;;26.60;20.80;;;13.60;99.90;;;;;;5022883;28;20030;-77
2023/09/12 01:52:26;;;;;;;27.42;21.77;;;13.60;99.90;;;;;;5015783;28;20025;-79
2023/09/12 01:54:52;;;;;;;27.45;23.23;;;13.60;99.90;;;;;;5027048;28;20029;-78
2023/09/12 01:57:20;;;;;;;28.77;22.73;;;13.60;99.90;;;;;;5024731;28;20091;-77
2023/09/12 01:59:48;;;;;;;24.88;20.20;;;13.60;99.90;;;;;;5018127;28;20022;-77
2023/09/12 02:02:18;;;;;;;31.27;23.20;;;13.50;99.90;;;;;;5022746;28;20026;-77
2023/09/12 02:04:58;;;;;;;29.13;23.15;;;13.60;99.90;;;;;;5037258;28;20029;-78
2023/09/12 02:07:25;;;;;;;27.90;22.85;;;13.60;99.90;;;;;;5033997;28;20013;-78
2023/09/12 02:09:51;;;;;;;30.70;24.13;;;13.60;99.90;;;;;;5018407;28;20469;-79
2023/09/12 02:12:17;;;;;;;32.30;23.23;;;13.60;99.90;;;;;;5027111;28;20114;-78
2023/09/12 02:14:43;;;;;;;29.38;23.05;;;13.60;99.90;;;;;;5021587;28;20029;-77
2023/09/12 02:17:08;;;;;;;29.60;22.38;;;13.60;99.90;;;;;;5033536;28;20176;-77
2023/09/12 02:19:34;;;;;;;25.02;20.17;;;13.60;99.90;;;;;;5028129;28;20036;-77
2023/09/12 02:22:00;;;;;;;28.08;21.90;;;13.50;99.90;;;;;;5029912;28;20029;-78
2023/09/12 02:24:25;;;;;;;23.60;18.92;;;13.50;99.90;;;;;;5028019;28;20033;-76
2023/09/12 02:26:51;;;;;;;23.52;18.58;;;13.40;99.90;;;;;;5017299;28;20619;-78
2023/09/12 02:29:16;;;;;;;22.27;18.30;;;13.40;99.90;;;;;;5023527;28;20021;-77
2023/09/12 02:31:42;;;;;;;22.02;17.85;;;13.40;99.90;;;;;;5033712;28;20101;-77
2023/09/12 02:34:08;;;;;;;21.10;17.25;;;13.40;99.90;;;;;;5027246;28;20028;-78
2023/09/12 02:36:33;;;;;;;20.38;18.17;;;13.30;99.90;;;;;;5033967;28;20029;-78
2023/09/12 02:38:59;;;;;;;22.98;19.92;;;13.30;99.90;;;;;;5041877;28;20045;-77
2023/09/12 02:41:25;;;;;;;24.02;17.63;;;13.30;99.90;;;;;;5034132;28;20127;-77
2023/09/12 02:43:50;;;;;;;17.95;16.17;;;13.30;99.90;;;;;;5044391;28;20025;-77
2023/09/12 02:46:16;;;;;;;17.92;14.82;;;13.20;99.90;;;;;;5041362;28;20022;-78
2023/09/12 02:48:41;;;;;;;14.43;12.80;;;13.20;99.90;;;;;;5040304;28;20025;-78
2023/09/12 02:51:07;;;;;;;16.48;14.68;;;13.10;99.90;;;;;;5040949;28;20395;-77
2023/09/12 02:53:33;;;;;;;17.42;15.45;;;13.00;99.90;;;;;;5040974;28;20025;-78
2023/09/12 02:55:58;;;;;;;19.23;15.23;;;13.00;99.90;;;;;;5040421;28;20109;-77
2023/09/12 02:58:24;;;;;;;25.23;19.00;;;13.00;99.90;;;;;;5017546;28;20029;-78
2023/09/12 03:00:54;;;;;;;28.40;20.27;;;13.00;99.90;;;;;;5015712;28;20024;-78
2023/09/12 03:03:19;;;;;;;29.05;20.85;;;13.00;99.90;;;;;;5019002;28;20041;-77
2023/09/12 03:05:45;;;;;;;32.20;21.83;;;13.00;99.90;;;;;;5026742;28;20013;-78
2023/09/12 03:08:11;;;;;;;36.92;22.98;;;13.00;99.90;;;;;;5017887;28;20447;-78
2023/09/12 03:10:37;;;;;;;29.33;20.35;;;12.90;99.90;;;;;;5035894;28;20027;-77
2023/09/12 03:13:03;;;;;;;24.85;20.85;;;13.00;99.90;;;;;;5031637;28;20018;-78
2023/09/12 03:15:28;;;;;;;23.95;20.02;;;13.00;99.90;;;;;;5048021;28;20474;-78
2023/09/12 03:17:54;;;;;;;23.90;19.58;;;13.00;99.90;;;;;;5031255;28;20463;-78
2023/09/12 03:20:19;;;;;;;26.05;21.27;;;13.00;99.90;;;;;;5036067;28;20029;-77
2023/09/12 03:22:46;;;;;;;27.42;19.75;;;13.00;99.90;;;;;;5033816;28;20034;-77
2023/09/12 03:25:11;;;;;;;32.15;20.48;;;12.90;99.90;;;;;;5047931;28;20013;-78
2023/09/12 03:27:37;;;;;;;27.35;20.25;;;12.90;99.90;;;;;;5034940;28;20014;-78
2023/09/12 03:30:04;;;;;;;22.52;17.88;;;13.00;99.90;;;;;;5047935;28;20017;-79
2023/09/12 03:32:30;;;;;;;24.73;18.98;;;12.90;99.90;;;;;;5041999;28;20038;-79
2023/09/12 03:34:55;;;;;;;18.17;15.07;;;12.80;99.90;;;;;;5047973;28;20162;-78
2023/09/12 03:37:21;;;;;;;14.07;12.60;;;12.80;99.90;;;;;;5045413;28;20067;-78
2023/09/12 03:39:47;;;;;;;11.38;10.23;;;12.70;99.90;;;;;;5047863;28;20017;-78
2023/09/12 03:42:13;;;;;;;13.77;12.35;;;12.70;99.90;;;;;;5046455;28;20111;-77
2023/09/12 03:44:38;;;;;;;13.85;12.27;;;12.60;99.90;;;;;;5043549;28;20553;-77
2023/09/12 03:47:04;;;;;;;18.02;14.85;;;12.60;99.90;;;;;;5031306;28;20030;-78
2023/09/12 03:49:30;;;;;;;14.20;12.55;;;12.50;99.90;;;;;;5042666;28;20394;-78
2023/09/12 03:51:55;;;;;;;15.18;13.07;;;12.50;99.90;;;;;;5030686;28;20037;-79
2023/09/12 03:54:21;;;;;;;16.52;14.45;;;12.40;99.90;;;;;;5042991;28;20167;-78
2023/09/12 03:56:47;;;;;;;14.95;13.45;;;12.50;99.90;;;;;;5031750;28;20052;-79
2023/09/12 03:59:12;;;;;;;18.67;14.30;;;12.50;99.90;;;;;;5013588;28;20094;-79
2023/09/12 04:01:38;;;;;;;21.38;15.95;;;12.40;99.90;;;;;;5023262;28;20021;-77
2023/09/12 04:04:04;;;;;;;25.98;18.90;;;12.40;99.90;;;;;;5019436;28;20073;-78
2023/09/12 04:06:29;;;;;;;24.70;19.02;;;12.40;99.90;;;;;;5030231;28;20014;-78
2023/09/12 04:08:55;;;;;;;27.50;18.52;;;12.50;99.90;;;;;;5019117;28;20256;-78
2023/09/12 04:11:21;;;;;;;37.30;22.42;;;12.50;99.90;;;;;;5030227;28;20078;-77
2023/09/12 04:13:46;;;;;;;37.05;25.60;;;12.50;99.90;;;;;;5021486;28;20028;-78
2023/09/12 04:16:12;;;;;;;44.95;27.17;;;12.50;99.90;;;;;;5030387;28;20028;-77
2023/09/12 04:18:38;;;;;;;44.03;29.40;;;12.50;99.90;;;;;;5028045;28;20082;-77
2023/09/12 04:21:04;;;;;;;47.25;29.02;;;12.50;99.90;;;;;;5042977;28;20053;-78
2023/09/12 04:23:30;;;;;;;42.15;26.67;;;12.50;99.90;;;;;;5028952;28;20056;-78
2023/09/12 04:25:55;;;;;;;39.60;27.42;;;12.50;99.90;;;;;;5035951;28;20100;-78
2023/09/12 04:28:21;;;;;;;35.40;23.38;;;12.50;99.90;;;;;;5029830;28;20467;-78
2023/09/12 04:30:46;;;;;;;35.03;23.20;;;12.50;99.90;;;;;;5029861;28;20062;-78
2023/09/12 04:33:12;;;;;;;30.38;22.08;;;12.50;99.90;;;;;;5029040;28;20017;-77
2023/09/12 04:35:38;;;;;;;26.92;19.92;;;12.50;99.90;;;;;;5031993;28;20022;-77
2023/09/12 04:38:04;;;;;;;27.95;20.80;;;12.50;99.90;;;;;;5035814;28;20049;-78
2023/09/12 04:40:29;;;;;;;32.70;21.67;;;12.50;99.90;;;;;;5039398;28;20518;-78
2023/09/12 04:42:55;;;;;;;25.67;19.67;;;12.60;99.90;;;;;;5032819;28;20024;-78
2023/09/12 04:45:21;;;;;;;29.23;21.00;;;12.60;99.90;;;;;;5043384;28;20021;-78
2023/09/12 04:47:46;;;;;;;24.92;19.65;;;12.60;99.90;;;;;;5041517;28;20105;-78
2023/09/12 04:50:12;;;;;;;21.13;17.15;;;12.70;99.90;;;;;;5027563;28;20035;-78
2023/09/12 04:52:38;;;;;;;20.33;15.82;;;12.70;99.90;;;;;;5025850;28;20082;-78
2023/09/12 04:55:04;;;;;;;20.42;16.73;;;12.70;99.90;;;;;;5029480;28;20105;-78
2023/09/12 04:57:30;;;;;;;19.40;15.98;;;12.80;99.90;;;;;;5031280;28;20029;-77
2023/09/12 04:59:59;;;;;;;34.75;23.02;;;12.80;99.90;;;;;;5026284;28;20436;-78
2023/09/12 05:02:25;;;;;;;31.08;19.95;;;12.90;99.90;;;;;;5035320;28;20022;-79
2023/09/12 05:04:51;;;;;;;28.52;18.25;;;13.00;99.90;;;;;;5034032;28;20487;-78
2023/09/12 05:07:17;;;;;;;20.40;16.00;;;13.00;99.90;;;;;;5029411;28;20448;-79
2023/09/12 05:09:42;;;;;;;19.95;15.88;;;13.10;99.90;;;;;;5031416;28;20112;-77
2023/09/12 05:12:08;;;;;;;19.58;16.30;;;13.10;99.90;;;;;;5034711;28;20116;-79
2023/09/12 05:14:34;;;;;;;19.90;15.48;;;13.20;99.90;;;;;;5026446;28;20023;-77
2023/09/12 05:17:01;;;;;;;21.92;17.08;;;13.20;99.90;;;;;;5032273;28;20013;-79
2023/09/12 05:19:27;;;;;;;24.55;16.25;;;13.20;99.90;;;;;;5018714;28;20044;-79
2023/09/12 05:21:53;;;;;;;21.42;16.08;;;13.30;99.90;;;;;;5023593;28;20800;-78
2023/09/12 05:24:18;;;;;;;23.42;17.38;;;13.30;99.90;;;;;;5022558;28;20022;-78
2023/09/12 05:26:44;;;;;;;27.30;19.30;;;13.30;99.90;;;;;;5026893;28;20090;-76
2023/09/12 05:29:10;;;;;;;30.17;20.08;;;13.30;99.90;;;;;;5021356;28;20018;-79
2023/09/12 05:31:35;;;;;;;26.52;19.63;;;13.40;99.90;;;;;;5019407;28;20522;-78
2023/09/12 05:34:01;;;;;;;25.40;17.83;;;13.50;99.90;;;;;;5012122;28;20523;-80
2023/09/12 05:36:27;;;;;;;26.73;17.63;;;13.60;99.90;;;;;;5021962;28;20080;-80
2023/09/12 05:38:52;;;;;;;21.65;16.70;;;13.70;99.90;;;;;;5023506;28;20429;-80
2023/09/12 05:41:18;;;;;;;24.92;19.17;;;13.80;99.90;;;;;;5027557;28;20025;-80
2023/09/12 05:43:43;;;;;;;25.70;19.17;;;14.00;99.90;;;;;;5011824;28;20029;-80
2023/09/12 05:46:09;;;;;;;25.05;19.67;;;14.10;99.90;;;;;;5010455;28;20068;-80
2023/09/12 05:48:35;;;;;;;24.00;19.40;;;14.30;99.90;;;;;;5013827;28;20098;-78
2023/09/12 05:51:00;;;;;;;25.83;19.17;;;14.40;99.90;;;;;;5020913;28;20028;-80
2023/09/12 05:53:26;;;;;;;30.40;20.73;;;14.60;99.90;;;;;;5011718;28;20038;-78
2023/09/12 05:55:52;;;;;;;32.80;23.13;;;14.80;99.90;;;;;;5012294;28;20484;-80
2023/09/12 05:58:17;;;;;;;31.90;22.75;;;15.00;99.90;;;;;;5013636;28;20025;-80
2023/09/12 06:00:43;;;;;;;32.00;22.55;;;15.20;99.90;;;;;;5021971;28;20013;-80
2023/09/12 06:03:09;;;;;;;30.63;21.33;;;15.40;99.90;;;;;;5008112;28;20041;-80
2023/09/12 06:05:35;;;;;;;27.17;22.08;;;15.60;99.90;;;;;;5019409;28;20021;-79
2023/09/12 06:08:00;;;;;;;25.23;19.00;;;15.80;99.90;;;;;;5028278;28;20025;-79
2023/09/12 06:10:26;;;;;;;28.83;22.63;;;16.00;99.90;;;;;;5029806;28;20033;-80
2023/09/12 06:12:52;;;;;;;26.55;21.45;;;16.20;99.90;;;;;;5019637;28;20029;-80
2023/09/12 06:15:17;;;;;;;25.50;21.13;;;16.40;99.90;;;;;;5029499;28;20013;-80
2023/09/12 06:17:43;;;;;;;31.35;21.02;;;16.60;99.90;;;;;;5032140;28;20029;-80
2023/09/12 06:20:09;;;;;;;26.48;21.42;;;16.80;99.90;;;;;;5025768;28;20022;-79
2023/09/12 06:22:35;;;;;;;30.10;21.83;;;17.00;99.90;;;;;;5024817;28;20038;-80
2023/09/12 06:25:01;;;;;;;35.75;23.60;;;17.20;99.90;;;;;;5040172;28;20024;-80
2023/09/12 06:27:27;;;;;;;36.55;25.48;;;17.40;99.90;;;;;;5025921;28;20089;-80
2023/09/12 06:29:52;;;;;;;36.90;25.42;;;17.60;99.90;;;;;;5025713;28;20419;-80
2023/09/12 06:32:18;;;;;;;37.75;25.38;;;17.80;99.90;;;;;;5029309;28;20062;-80
2023/09/12 06:34:44;;;;;;;28.55;22.83;;;18.00;99.90;;;;;;5038470;28;20010;-79
2023/09/12 06:37:11;;;;;;;39.22;27.77;;;18.20;99.90;;;;;;5026619;28;20098;-80
2023/09/12 06:39:37;;;;;;;50.75;31.52;;;18.40;99.90;;;;;;5026618;28;20014;-81
2023/09/12 06:42:03;;;;;;;47.78;31.35;;;18.60;99.90;;;;;;5027792;28;20376;-80
2023/09/12 06:44:29;;;;;;;46.55;29.67;;;18.90;99.90;;;;;;5026664;28;20009;-81
2023/09/12 06:46:54;;;;;;;53.00;32.83;;;19.10;99.90;;;;;;5030093;28;20096;-81
2023/09/12 06:49:20;;;;;;;60.85;35.10;;;19.30;99.90;;;;;;5015869;28;20025;-80
2023/09/12 06:51:45;;;;;;;52.00;34.70;;;19.40;99.90;;;;;;5041448;28;20033;-81
2023/09/12 06:54:12;;;;;;;57.75;34.70;;;19.60;99.90;;;;;;5032346;28;20048;-81
2023/09/12 06:56:38;;;;;;;45.83;31.95;;;19.70;99.90;;;;;;5032909;28;20101;-80
2023/09/12 06:59:07;;;;;;;58.28;30.73;;;20.00;99.90;;;;;;5041444;28;20480;-81
2023/09/12 07:01:33;;;;;;;43.03;28.25;;;20.20;99.90;;;;;;5022526;28;20458;-81
2023/09/12 07:03:59;;;;;;;45.28;28.77;;;20.30;99.90;;;;;;5030812;28;20104;-81
2023/09/12 07:06:24;;;;;;;38.22;25.77;;;20.50;99.90;;;;;;5031488;28;20017;-81
2023/09/12 07:08:51;;;;;;;38.28;27.88;;;20.70;99.90;;;;;;5021919;28;20074;-81
2023/09/12 07:11:17;;;;;;;36.67;25.40;;;20.80;99.90;;;;;;5031220;28;20530;-81
2023/09/12 07:13:42;;;;;;;32.22;23.60;;;21.00;99.90;;;;;;5022721;28;20018;-81
2023/09/12 07:16:08;;;;;;;49.00;26.98;;;21.20;99.90;;;;;;5032708;28;20534;-81
2023/09/12 07:18:34;;;;;;;38.22;24.60;;;21.30;99.90;;;;;;5020406;28;20483;-81
2023/09/12 07:21:01;;;;;;;33.30;23.70;;;21.30;99.90;;;;;;5031879;28;20028;-81
2023/09/12 07:23:27;;;;;;;34.80;24.27;;;21.40;99.90;;;;;;5024219;28;20026;-81
2023/09/12 07:25:55;;;;;;;35.03;25.58;;;21.60;99.90;;;;;;5032722;28;20143;-82
2023/09/12 07:28:21;;;;;;;34.92;23.95;;;21.70;99.90;;;;;;5026079;28;20017;-82
2023/09/12 07:30:47;;;;;;;33.35;23.52;;;21.80;99.90;;;;;;5032574;28;20030;-82
2023/09/12 07:33:13;;;;;;;28.67;21.83;;;22.00;99.90;;;;;;5022332;28;20037;-82
2023/09/12 07:35:39;;;;;;;32.08;22.02;;;22.10;99.90;;;;;;5031217;28;20025;-82
2023/09/12 07:38:04;;;;;;;29.95;21.10;;;22.30;99.90;;;;;;5028669;28;20449;-82
2023/09/12 07:40:30;;;;;;;29.88;20.30;;;22.40;99.90;;;;;;5032365;28;20074;-82
2023/09/12 07:42:56;;;;;;;33.15;20.17;;;22.60;99.90;;;;;;5028755;28;20029;-82
2023/09/12 07:45:21;;;;;;;28.40;19.75;;;22.70;99.90;;;;;;5030941;28;20109;-82
2023/09/12 07:47:48;;;;;;;27.05;18.83;;;22.80;99.90;;;;;;5027004;28;20070;-82
2023/09/12 07:50:14;;;;;;;24.98;18.02;;;22.90;99.90;;;;;;5032648;28;20387;-82
2023/09/12 07:52:39;;;;;;;20.83;17.20;;;23.00;99.90;;;;;;5029588;28;20040;-82
2023/09/12 07:55:07;;;;;;;20.42;16.23;;;23.20;99.90;;;;;;5032827;28;20026;-82
2023/09/12 07:57:34;;;;;;;20.92;15.68;;;23.30;99.90;;;;;;5029671;28;20020;-82
2023/09/12 08:00:00;;;;;;;26.15;17.13;;;23.60;99.90;;;;;;5021800;28;20030;-82
2023/09/12 08:02:26;;;;;;;22.60;16.23;;;23.70;99.60;;;;;;5028348;28;20032;-82
2023/09/12 08:04:53;;;;;;;22.45;15.63;;;23.80;97.60;;;;;;5030792;28;20014;-82
2023/09/12 08:07:19;;;;;;;23.80;15.48;;;24.00;94.90;;;;;;5027939;28;20022;-82
2023/09/12 08:09:50;;;;;;;21.70;14.77;;;24.10;91.70;;;;;;5023833;28;20022;-82
2023/09/12 08:12:16;;;;;;;24.25;15.95;;;24.00;87.80;;;;;;5029963;28;20117;-82
2023/09/12 08:14:42;;;;;;;22.08;15.57;;;24.10;85.30;;;;;;5031781;28;20067;-82
2023/09/12 08:17:09;;;;;;;24.27;15.55;;;24.30;84.70;;;;;;5026388;28;20025;-82
2023/09/12 08:19:34;;;;;;;19.60;14.77;;;24.40;83.80;;;;;;5024998;28;20505;-82
2023/09/12 08:22:00;;;;;;;22.40;14.55;;;24.60;82.00;;;;;;5028864;28;20033;-82
2023/09/12 08:24:26;;;;;;;21.10;13.02;;;24.70;76.60;;;;;;5031442;28;20029;-83
2023/09/12 08:26:51;;;;;;;16.38;13.13;;;24.90;75.00;;;;;;5030854;28;20013;-82
2023/09/12 08:29:17;;;;;;;22.90;13.05;;;24.90;71.80;;;;;;5023878;28;20025;-82
2023/09/12 08:31:44;;;;;;;16.73;13.18;;;25.00;69.90;;;;;;5030930;28;20026;-82
2023/09/12 08:34:10;;;;;;;16.55;12.20;;;25.00;69.50;;;;;;5025813;28;20028;-82
2023/09/12 08:36:36;;;;;;;17.42;13.00;;;25.20;70.80;;;;;;5030167;28;20029;-82
2023/09/12 08:39:01;;;;;;;17.23;11.68;;;25.30;69.90;;;;;;5025537;28;20046;-82
2023/09/12 08:41:27;;;;;;;16.48;12.52;;;25.40;69.30;;;;;;5030168;28;20364;-82
2023/09/12 08:43:54;;;;;;;12.70;10.90;;;25.60;69.60;;;;;;5031252;28;20093;-82
2023/09/12 08:46:20;;;;;;;13.30;11.02;;;25.70;67.40;;;;;;5031378;28;20394;-83
2023/09/12 08:48:49;;;;;;;14.20;11.15;;;25.80;64.90;;;;;;5027790;28;20029;-82
2023/09/12 08:51:14;;;;;;;11.27;9.82;;;25.90;66.40;;;;;;5029944;28;20034;-84
2023/09/12 08:53:40;;;;;;;11.98;9.35;;;26.00;64.10;;;;;;5028852;28;20026;-84
2023/09/12 08:56:06;;;;;;;10.02;8.77;;;26.20;61.10;;;;;;5029777;28;20531;-84
2023/09/12 08:58:34;;;;;;;13.77;10.15;;;26.20;58.00;;;;;;5041646;28;20513;-84
2023/09/12 09:01:00;;;;;;;13.73;10.05;;;26.30;58.80;;;;;;5018043;28;20021;-84
2023/09/12 09:03:26;;;;;;;12.50;9.90;;;26.40;60.30;;;;;;5018231;28;20446;-85
2023/09/12 09:05:54;;;;;;;12.77;9.82;;;26.40;58.60;;;;;;5031008;28;20459;-82
2023/09/12 09:08:21;;;;;;;11.15;9.05;;;26.50;57.10;;;;;;5019710;28;20025;-83
2023/09/12 09:11:02;;;;;;;9.10;8.20;;;26.50;57.20;;;;;;5048740;28;20020;-83
2023/09/12 09:13:28;;;;;;;10.07;8.55;;;26.50;54.30;;;;;;5046199;28;20068;-84
2023/09/12 09:16:18;;;;;;;12.48;9.48;;;26.60;53.20;;;;;;5039228;28;20378;-84
2023/09/12 09:18:57;;;;;;;12.10;8.48;;;26.60;53.60;;;;;;5017357;28;20065;-83
2023/09/12 09:21:25;;;;;;;10.68;9.07;;;26.60;54.00;;;;;;5029414;28;20057;-82
2023/09/12 09:23:52;;;;;;;8.70;7.90;;;26.70;53.60;;;;;;5028669;28;20081;-83
2023/09/12 09:26:18;;;;;;;10.73;8.82;;;26.70;53.40;;;;;;5035389;28;20021;-85
2023/09/12 09:28:44;;;;;;;13.02;10.38;;;26.80;53.10;;;;;;5030325;28;20029;-82
2023/09/12 09:31:11;;;;;;;9.02;8.13;;;26.80;52.60;;;;;;5041802;28;20029;-85
2023/09/12 09:33:38;;;;;;;8.77;7.88;;;26.80;51.80;;;;;;5032706;28;20022;-85
2023/09/12 09:36:05;;;;;;;9.77;8.48;;;26.90;51.80;;;;;;5030168;28;20036;-83
2023/09/12 09:38:31;;;;;;;11.90;9.45;;;27.10;53.40;;;;;;5042162;28;20057;-84
2023/09/12 09:40:57;;;;;;;12.57;9.40;;;27.00;52.30;;;;;;5047071;28;20045;-82
2023/09/12 09:43:24;;;;;;;12.32;9.82;;;27.10;52.60;;;;;;5028136;28;20052;-82
2023/09/12 09:45:50;;;;;;;10.80;9.45;;;27.00;52.40;;;;;;5045095;28;20021;-86
2023/09/12 09:48:31;;;;;;;10.43;8.75;;;27.00;52.60;;;;;;5035676;28;20021;-85
2023/09/12 09:51:02;;;;;;;13.32;9.73;;;27.10;53.40;;;;;;5027567;28;20425;-83
2023/09/12 09:53:34;;;;;;;12.90;9.73;;;27.00;52.90;;;;;;5020869;28;20533;-82
2023/09/12 09:56:11;;;;;;;11.23;9.50;;;27.10;53.90;;;;;;5040900;28;20016;-82
2023/09/12 09:58:57;;;;;;;14.88;9.35;;;27.10;53.50;;;;;;5025017;28;20060;-82
2023/09/12 10:01:27;;;;;;;11.68;8.68;;;27.40;54.60;;;;;;5031514;28;20057;-88
2023/09/12 10:03:59;;;;;;;10.43;8.82;;;27.40;54.40;;;;;;5013977;28;20014;-82
2023/09/12 10:06:26;;;;;;;;;;;27.60;54.30;;;;;;5030070;28;20074;-82
2023/09/12 10:08:53;;;;;;;12.65;9.02;;;27.70;54.30;;;;;;5028363;28;20419;-82
2023/09/12 10:11:22;;;;;;;11.45;9.45;;;27.70;52.10;;;;;;5030103;28;20030;-87
2023/09/12 10:13:56;;;;;;;10.90;9.48;;;27.60;52.10;;;;;;5037185;28;20096;-89
2023/09/12 10:16:51;;;;;;;10.07;8.90;;;27.60;53.10;;;;;;5040656;28;20049;-80
2023/09/12 10:19:21;;;;;;;11.90;9.30;;;27.50;52.30;;;;;;5026587;28;20026;-81
2023/09/12 10:22:04;;;;;;;12.27;9.32;;;27.40;52.20;;;;;;5010352;28;20133;-82
2023/09/12 10:24:30;;;;;;;9.32;8.35;;;27.50;52.80;;;;;;5043875;28;20094;-82
2023/09/12 10:26:58;;;;;;;14.10;9.30;;;27.60;53.10;;;;;;5038589;28;20539;-81
2023/09/12 10:29:23;;;;;;;11.57;9.85;;;27.50;52.90;;;;;;5014586;28;20040;-82
2023/09/12 10:31:49;;;;;;;10.00;9.00;;;27.70;53.10;;;;;;5022947;28;20491;-86
2023/09/12 10:34:16;;;;;;;11.93;10.05;;;27.70;53.50;;;;;;5014668;28;20089;-88
2023/09/12 10:36:43;;;;;;;10.40;9.27;;;27.80;54.40;;;;;;5023977;28;20399;-87
2023/09/12 10:39:10;;;;;;;12.98;9.65;;;27.70;53.00;;;;;;5024942;28;20025;-82
2023/09/12 10:41:38;;;;;;;11.10;9.30;;;27.90;52.40;;;;;;5031358;28;20041;-81
2023/09/12 10:44:11;;;;;;;14.30;9.93;;;28.00;52.30;;;;;;5010395;28;20375;-81
2023/09/12 10:46:41;;;;;;;9.65;8.65;;;28.10;52.80;;;;;;5026374;28;20469;-81
2023/09/12 10:49:08;;;;;;;10.27;9.07;;;28.20;52.10;;;;;;5025879;28;20018;-81
2023/09/12 10:51:39;;;;;;;10.95;9.82;;;28.30;51.20;;;;;;5031977;28;20054;-81
2023/09/12 10:54:06;;;;;;;10.57;9.57;;;28.40;51.60;;;;;;5024750;28;20025;-82
2023/09/12 10:56:33;;;;;;;13.00;9.40;;;28.40;52.40;;;;;;5022165;28;20030;-82
2023/09/12 10:59:06;;;;;;;11.57;9.88;;;28.20;52.00;;;;;;5011277;28;20100;-80
2023/09/12 11:01:32;;;;;;;11.32;10.23;;;27.90;51.80;;;;;;5015669;28;20069;-80
2023/09/12 11:03:58;;;;;;;12.25;10.38;;;27.80;53.20;;;;;;5016028;28;20029;-80
2023/09/12 11:06:31;;;;;;;12.45;10.10;;;27.80;54.00;;;;;;5024708;28;20030;-80
2023/09/12 11:09:19;;;;;;;10.43;9.00;;;28.00;55.40;;;;;;5012666;28;20029;-79
2023/09/12 11:11:49;;;;;;;15.65;9.75;;;28.20;53.40;;;;;;5031220;28;20042;-80
2023/09/12 11:14:16;;;;;;;9.77;8.63;;;28.40;52.90;;;;;;5019945;28;20105;-81
2023/09/12 11:16:43;;;;;;;10.05;8.95;;;28.50;52.50;;;;;;5025884;28;20033;-84
2023/09/12 11:19:13;;;;;;;13.52;10.07;;;28.50;51.40;;;;;;5019032;28;20060;-79
2023/09/12 11:21:39;;;;;;;9.93;8.95;;;28.50;51.70;;;;;;5026435;28;20025;-83
2023/09/12 11:24:05;;;;;;;11.95;9.90;;;28.50;51.80;;;;;;5025191;28;20426;-83
2023/09/12 11:26:31;;;;;;;10.82;9.25;;;28.40;51.50;;;;;;5034238;28;20386;-83
2023/09/12 11:28:57;;;;;;;11.50;8.90;;;28.20;52.20;;;;;;5027956;28;20030;-84
2023/09/12 11:31:28;;;;;;;15.38;10.27;;;28.10;52.90;;;;;;5030841;28;20060;-81
2023/09/12 11:33:54;;;;;;;10.73;9.57;;;27.80;53.10;;;;;;5036710;28;20033;-80
2023/09/12 11:36:20;;;;;;;11.88;10.13;;;27.60;52.60;;;;;;5037032;28;20037;-83
2023/09/12 11:38:50;;;;;;;11.40;10.23;;;27.50;52.80;;;;;;5026727;28;20117;-81
2023/09/12 11:41:39;;;;;;;12.40;9.27;;;27.50;52.50;;;;;;5029152;28;20517;-86
2023/09/12 11:44:06;;;;;;;9.70;8.77;;;27.50;53.30;;;;;;5029453;28;20060;-84
2023/09/12 11:46:34;;;;;;;12.18;9.82;;;27.40;54.50;;;;;;5039866;28;20025;-82
2023/09/12 11:49:02;;;;;;;13.10;10.35;;;27.10;55.00;;;;;;5031625;28;20032;-84
2023/09/12 11:51:29;;;;;;;12.27;9.63;;;27.10;55.60;;;;;;5041161;28;20502;-85
2023/09/12 11:53:57;;;;;;;13.45;9.98;;;27.30;56.10;;;;;;5036653;28;20078;-84
2023/09/12 11:56:23;;;;;;;19.17;16.00;;;27.40;55.00;;;;;;5040268;28;20037;-84
2023/09/12 11:58:49;;;;;;;15.88;12.25;;;27.70;55.60;;;;;;5031172;28;20026;-80
2023/09/12 12:01:15;;;;;;;20.30;16.33;;;27.80;55.90;;;;;;5019554;28;20025;-84
2023/09/12 12:03:40;;;;;;;14.32;11.32;;;28.00;55.10;;;;;;5018848;28;20022;-83
2023/09/12 12:06:06;;;;;;;12.13;10.32;;;28.10;54.20;;;;;;5031792;28;20027;-85
2023/09/12 12:08:32;;;;;;;12.40;10.82;;;28.00;54.20;;;;;;5020691;28;20029;-84
2023/09/12 12:10:58;;;;;;;26.05;18.35;;;28.10;54.40;;;;;;5031469;28;20467;-80
2023/09/12 12:13:24;;;;;;;12.65;11.38;;;28.10;54.60;;;;;;5045794;28;20025;-86
2023/09/12 12:15:50;;;;;;;20.30;12.57;;;28.10;54.30;;;;;;5049532;28;20386;-80
2023/09/12 12:18:15;;;;;;;21.00;14.38;;;28.30;53.70;;;;;;5027706;28;20470;-80
2023/09/12 12:20:42;;;;;;;18.90;13.85;;;28.40;54.00;;;;;;5041472;28;20538;-80
2023/09/12 12:23:08;;;;;;;17.40;11.63;;;28.50;53.60;;;;;;5030147;28;20022;-80
2023/09/12 12:25:34;;;;;;;19.52;12.30;;;28.80;53.20;;;;;;5038461;28;20382;-85
2023/09/12 12:28:02;;;;;;;21.95;14.50;;;28.60;52.90;;;;;;5034161;28;20022;-84
2023/09/12 12:30:31;;;;;;;21.67;16.05;;;28.40;52.30;;;;;;5038507;28;20017;-84